Time;durP1;ratioP1;P1;durP2;ratioP2;P2;SDS_P1;SDS_P2;PMS_P1;PMS_P2;Temp;Humidity;BMP_temperature;BMP_pressure;BME280_temperature;BME280_humidity;BME280_pressure;Samples;Min_cycle;Max_cycle;Signal;HPM_P1;HPM_P2
2023/07/13 00:00:25;;;;;;;6.82;1.83;;;20.30;61.10;;;;;;5069842;28;20032;-66
2023/07/13 00:02:53;;;;;;;7.95;2.15;;;20.30;61.00;;;;;;5071132;28;20095;-65
2023/07/13 00:05:23;;;;;;;6.63;1.75;;;20.30;61.00;;;;;;5069325;28;20180;-66
2023/07/13 00:07:52;;;;;;;7.20;2.20;;;20.30;60.90;;;;;;5053562;28;20024;-66
2023/07/13 00:10:18;;;;;;;6.30;2.08;;;20.30;60.90;;;;;;5071177;28;20021;-66
2023/07/13 00:12:44;;;;;;;6.30;2.00;;;20.30;60.90;;;;;;5071126;28;20012;-66
2023/07/13 00:15:22;;;;;;;7.82;1.90;;;20.30;60.80;;;;;;5066698;28;20029;-66
2023/07/13 00:17:53;;;;;;;4.47;1.83;;;20.20;60.60;;;;;;5071320;28;20024;-66
2023/07/13 00:20:24;;;;;;;10.75;2.25;;;20.30;60.70;;;;;;5054607;28;20025;-65
2023/07/13 00:22:53;;;;;;;6.35;2.10;;;20.30;60.60;;;;;;5071079;28;20457;-66
2023/07/13 00:25:20;;;;;;;7.68;2.00;;;20.20;60.60;;;;;;5068944;28;20085;-66
2023/07/13 00:27:50;;;;;;;7.00;2.05;;;20.20;60.60;;;;;;5071403;28;20025;-66
2023/07/13 00:30:17;;;;;;;6.10;1.77;;;20.30;60.60;;;;;;5070865;28;20361;-66
2023/07/13 00:32:43;;;;;;;6.00;1.95;;;20.20;60.50;;;;;;5053477;28;20394;-66
2023/07/13 00:35:09;;;;;;;6.45;1.90;;;20.20;60.40;;;;;;5068954;28;20025;-66
2023/07/13 00:37:35;;;;;;;5.05;1.60;;;20.20;60.40;;;;;;5034229;28;20071;-66
2023/07/13 00:40:03;;;;;;;5.75;2.00;;;20.20;60.50;;;;;;5053589;28;20081;-66
2023/07/13 00:42:29;;;;;;;5.97;1.73;;;20.20;60.60;;;;;;5071429;28;20359;-66
2023/07/13 00:45:24;;;;;;;5.90;2.17;;;20.20;60.70;;;;;;5072390;28;20063;-66
2023/07/13 00:47:50;;;;;;;5.07;1.75;;;20.20;60.60;;;;;;4972358;28;20372;-66
2023/07/13 00:50:18;;;;;;;7.10;1.70;;;20.10;60.70;;;;;;5074345;28;20034;-66
2023/07/13 00:52:47;;;;;;;6.45;1.60;;;20.10;60.70;;;;;;5057447;28;20135;-66
2023/07/13 00:55:15;;;;;;;6.15;1.88;;;20.10;60.70;;;;;;5055529;28;20027;-66
2023/07/13 00:57:43;;;;;;;7.03;2.00;;;20.10;60.70;;;;;;5040145;28;20532;-66
2023/07/13 01:00:09;;;;;;;5.63;1.80;;;20.10;60.70;;;;;;5056852;28;20089;-66
2023/07/13 01:02:37;;;;;;;4.90;1.83;;;20.10;60.80;;;;;;5057101;28;20032;-66
2023/07/13 01:05:21;;;;;;;5.13;1.58;;;20.10;60.80;;;;;;5054406;28;20445;-65
2023/07/13 01:07:49;;;;;;;5.57;1.75;;;20.00;60.80;;;;;;5054066;28;20122;-66
2023/07/13 01:10:15;;;;;;;4.15;1.58;;;20.10;60.80;;;;;;5054619;28;20013;-65
2023/07/13 01:12:42;;;;;;;5.40;2.10;;;20.00;60.70;;;;;;5057314;28;20594;-66
2023/07/13 01:15:33;;;;;;;5.18;1.63;;;20.00;60.80;;;;;;5052017;28;20428;-66
2023/07/13 01:17:58;;;;;;;6.55;1.88;;;20.00;60.80;;;;;;5054768;28;20048;-66
2023/07/13 01:20:25;;;;;;;7.18;1.83;;;19.90;60.90;;;;;;5053599;28;20057;-66
2023/07/13 01:22:51;;;;;;;5.53;1.83;;;19.90;60.90;;;;;;5053383;28;20049;-65
2023/07/13 01:25:17;;;;;;;7.22;1.70;;;19.90;60.90;;;;;;5052995;28;20020;-66
2023/07/13 01:27:43;;;;;;;6.82;1.70;;;19.90;61.00;;;;;;5053838;28;20047;-66
2023/07/13 01:30:09;;;;;;;6.78;1.80;;;19.90;61.10;;;;;;5035615;28;20028;-66
2023/07/13 01:32:36;;;;;;;5.90;1.73;;;19.90;61.10;;;;;;5052165;28;20115;-65
2023/07/13 01:35:03;;;;;;;5.50;1.95;;;19.90;61.00;;;;;;5050456;28;20075;-66
2023/07/13 01:37:33;;;;;;;6.15;2.00;;;19.90;60.90;;;;;;5051363;28;20031;-66
2023/07/13 01:40:00;;;;;;;8.68;1.60;;;19.90;60.90;;;;;;5053810;28;20109;-66
2023/07/13 01:42:25;;;;;;;5.93;1.80;;;19.90;61.00;;;;;;5052086;28;20017;-66
2023/07/13 01:44:51;;;;;;;6.60;1.85;;;19.90;61.00;;;;;;5053236;28;20051;-66
2023/07/13 01:47:17;;;;;;;7.68;1.70;;;19.80;61.10;;;;;;5053117;28;20032;-66
2023/07/13 01:49:42;;;;;;;6.03;1.83;;;19.80;61.20;;;;;;5054235;28;20021;-66
2023/07/13 01:55:37;;;;;;;6.53;1.98;;;19.80;61.10;;;;;;5051855;28;20340;-66
2023/07/13 01:58:04;;;;;;;5.90;1.75;;;19.80;61.20;;;;;;5053787;28;20123;-66
2023/07/13 02:00:30;;;;;;;5.90;2.03;;;19.70;61.20;;;;;;5054009;28;20021;-66
2023/07/13 02:02:56;;;;;;;5.35;1.75;;;19.70;61.30;;;;;;5036998;28;20427;-67
2023/07/13 02:05:21;;;;;;;4.35;1.70;;;19.70;61.40;;;;;;5053283;28;20036;-66
2023/07/13 02:07:48;;;;;;;8.60;2.35;;;19.70;61.20;;;;;;5054003;28;20362;-66
2023/07/13 02:10:15;;;;;;;7.45;2.35;;;19.70;61.20;;;;;;5053921;28;20021;-65
2023/07/13 02:12:41;;;;;;;7.88;2.05;;;19.70;61.30;;;;;;5054599;28;20028;-65
2023/07/13 02:15:08;;;;;;;8.20;2.40;;;19.70;61.40;;;;;;5034435;28;20044;-66
2023/07/13 02:17:36;;;;;;;10.80;2.47;;;19.60;61.50;;;;;;5054926;28;20025;-65
2023/07/13 02:20:04;;;;;;;5.53;2.13;;;19.60;61.70;;;;;;5052807;28;20068;-66
2023/07/13 02:22:30;;;;;;;6.55;2.03;;;19.60;61.90;;;;;;5053830;28;20090;-66
2023/07/13 02:24:56;;;;;;;7.32;2.10;;;19.60;62.00;;;;;;5051515;28;20031;-65
2023/07/13 02:27:22;;;;;;;7.15;2.30;;;19.50;62.10;;;;;;5053101;28;20145;-65
2023/07/13 02:29:51;;;;;;;9.00;2.10;;;19.50;62.20;;;;;;5054824;28;20461;-65
2023/07/13 02:32:17;;;;;;;7.53;2.13;;;19.50;62.30;;;;;;5041638;28;20120;-66
2023/07/13 02:34:43;;;;;;;7.82;2.42;;;19.50;62.40;;;;;;5052974;28;20112;-66
2023/07/13 02:37:09;;;;;;;7.47;2.30;;;19.40;62.30;;;;;;5052939;28;20105;-66
2023/07/13 02:39:35;;;;;;;6.15;2.33;;;19.40;62.50;;;;;;5053550;28;20028;-66
2023/07/13 02:42:03;;;;;;;8.52;3.05;;;19.40;62.50;;;;;;5051975;28;20041;-65
2023/07/13 02:44:29;;;;;;;6.88;2.17;;;19.40;62.70;;;;;;5051888;28;21516;-65
2023/07/13 02:46:55;;;;;;;6.20;2.28;;;19.30;62.80;;;;;;5052136;28;20116;-65
2023/07/13 02:49:21;;;;;;;9.07;2.40;;;19.40;62.80;;;;;;5054486;28;20171;-65
2023/07/13 02:51:47;;;;;;;6.70;2.35;;;19.30;62.90;;;;;;5050815;28;20029;-65
2023/07/13 02:54:13;;;;;;;6.95;2.20;;;19.40;63.10;;;;;;5054153;28;20017;-65
2023/07/13 02:56:40;;;;;;;7.32;2.50;;;19.30;63.10;;;;;;5051072;28;20025;-65
2023/07/13 02:59:06;;;;;;;5.30;2.05;;;19.30;63.30;;;;;;5054600;28;20025;-65
2023/07/13 03:01:32;;;;;;;6.65;2.17;;;19.30;63.40;;;;;;5069072;28;20054;-66
2023/07/13 03:03:58;;;;;;;7.57;2.00;;;19.20;63.40;;;;;;5069888;28;20049;-65
2023/07/13 03:06:24;;;;;;;7.38;2.60;;;19.20;63.50;;;;;;5043810;28;20130;-65
2023/07/13 03:08:53;;;;;;;8.18;2.75;;;19.20;63.50;;;;;;5052446;28;20090;-66
2023/07/13 03:11:20;;;;;;;6.32;2.30;;;19.20;63.60;;;;;;5052308;28;20412;-66
2023/07/13 03:13:52;;;;;;;7.40;2.65;;;19.20;64.10;;;;;;5054326;28;20029;-66
2023/07/13 03:16:19;;;;;;;7.50;2.22;;;19.10;63.80;;;;;;5054433;28;20021;-65
2023/07/13 03:18:48;;;;;;;9.88;2.80;;;19.10;64.00;;;;;;5055481;28;20400;-65
2023/07/13 03:21:14;;;;;;;9.13;2.53;;;19.10;64.10;;;;;;5054665;28;20068;-66
2023/07/13 03:23:40;;;;;;;10.25;3.20;;;19.10;64.30;;;;;;5056147;28;20043;-66
2023/07/13 03:26:13;;;;;;;7.43;2.78;;;19.10;64.30;;;;;;5054317;28;20024;-65
2023/07/13 03:28:41;;;;;;;8.52;2.78;;;19.10;64.40;;;;;;5066586;28;20063;-66
2023/07/13 03:31:12;;;;;;;7.80;3.17;;;19.10;64.50;;;;;;5055092;28;20414;-66
2023/07/13 03:33:38;;;;;;;8.27;2.63;;;19.00;64.60;;;;;;5055316;28;20020;-65
2023/07/13 03:36:06;;;;;;;8.60;2.85;;;19.00;64.70;;;;;;5038654;28;20067;-65
2023/07/13 03:38:32;;;;;;;8.32;2.70;;;19.00;64.70;;;;;;5053953;28;20447;-65
2023/07/13 03:40:59;;;;;;;7.93;2.67;;;19.00;64.70;;;;;;5056269;28;20112;-65
2023/07/13 03:43:25;;;;;;;9.77;2.92;;;19.00;64.70;;;;;;5053289;28;20021;-65
2023/07/13 03:45:52;;;;;;;8.50;2.70;;;19.00;64.80;;;;;;5055819;28;20106;-65
2023/07/13 03:48:19;;;;;;;9.02;2.75;;;19.00;65.00;;;;;;5051463;28;20143;-65
2023/07/13 03:50:44;;;;;;;7.82;3.00;;;19.00;65.10;;;;;;5055124;28;20029;-65
2023/07/13 03:53:10;;;;;;;8.35;2.72;;;18.90;65.00;;;;;;5069303;28;20025;-66
2023/07/13 03:55:36;;;;;;;6.55;2.63;;;18.90;65.10;;;;;;5033847;28;20020;-65
2023/07/13 03:58:23;;;;;;;8.68;2.60;;;18.90;65.20;;;;;;5069478;28;20421;-65
2023/07/13 04:00:50;;;;;;;9.60;2.85;;;18.90;65.30;;;;;;5050513;28;20025;-65
2023/07/13 04:03:17;;;;;;;8.65;2.63;;;18.90;65.40;;;;;;5052561;28;20031;-65
2023/07/13 04:05:43;;;;;;;10.38;3.03;;;18.90;65.40;;;;;;5073631;28;20341;-65
2023/07/13 04:08:12;;;;;;;7.38;3.20;;;18.90;65.30;;;;;;5054940;28;20099;-65
2023/07/13 04:10:38;;;;;;;9.05;2.95;;;18.90;65.40;;;;;;5054053;28;20028;-65
2023/07/13 04:13:04;;;;;;;8.32;2.95;;;18.90;65.60;;;;;;5053040;28;20040;-65
2023/07/13 04:15:31;;;;;;;10.38;3.13;;;18.90;65.70;;;;;;5054974;28;20045;-65
2023/07/13 04:17:57;;;;;;;10.15;3.00;;;18.90;65.80;;;;;;5055723;28;20024;-65
2023/07/13 04:20:25;;;;;;;8.07;3.00;;;18.90;65.90;;;;;;5058180;28;20028;-66
2023/07/13 04:22:52;;;;;;;7.57;3.10;;;18.90;65.90;;;;;;5075862;28;20032;-65
2023/07/13 04:25:18;;;;;;;9.07;2.95;;;18.90;66.00;;;;;;5076729;28;20032;-65
2023/07/13 04:27:44;;;;;;;12.88;3.53;;;18.90;66.10;;;;;;5076120;28;20025;-66
2023/07/13 04:30:10;;;;;;;11.40;3.08;;;18.90;66.20;;;;;;5074335;28;20411;-65
2023/07/13 04:32:36;;;;;;;10.55;3.28;;;18.90;66.30;;;;;;5068781;28;20028;-65
2023/07/13 04:35:02;;;;;;;10.70;3.33;;;19.00;66.30;;;;;;5065934;28;20032;-65
2023/07/13 04:37:28;;;;;;;10.07;3.50;;;19.00;66.30;;;;;;5073116;28;20024;-65
2023/07/13 04:39:54;;;;;;;6.68;3.00;;;19.00;66.20;;;;;;5075220;28;20035;-65
2023/07/13 04:42:20;;;;;;;10.68;3.80;;;19.00;66.40;;;;;;5054314;28;20032;-66
2023/07/13 04:44:49;;;;;;;8.35;3.42;;;19.00;66.50;;;;;;5050095;28;20100;-65
2023/07/13 04:47:15;;;;;;;9.02;3.35;;;19.10;66.60;;;;;;5069919;28;20029;-65
2023/07/13 04:49:41;;;;;;;7.82;2.72;;;19.10;66.60;;;;;;5068380;28;20025;-65
2023/07/13 04:52:07;;;;;;;9.15;3.13;;;19.10;66.60;;;;;;5068864;28;20021;-66
2023/07/13 04:54:37;;;;;;;11.27;3.47;;;19.20;66.70;;;;;;5068585;28;21130;-65
2023/07/13 04:57:06;;;;;;;10.80;3.00;;;19.20;66.60;;;;;;5068202;28;20435;-65
2023/07/13 04:59:33;;;;;;;8.23;3.20;;;19.20;66.60;;;;;;5068403;28;20028;-66
2023/07/13 05:01:58;;;;;;;10.52;3.78;;;19.30;66.70;;;;;;5051151;28;21184;-65
2023/07/13 05:04:24;;;;;;;10.43;3.35;;;19.20;66.60;;;;;;5068661;28;20016;-65
2023/07/13 05:06:50;;;;;;;10.13;3.75;;;19.30;66.60;;;;;;5068024;28;20047;-65
2023/07/13 05:09:16;;;;;;;11.15;3.42;;;19.30;66.70;;;;;;5051579;28;20020;-65
2023/07/13 05:11:43;;;;;;;16.48;4.10;;;19.40;66.70;;;;;;5070926;28;20454;-65
2023/07/13 05:14:09;;;;;;;11.25;3.05;;;19.40;66.60;;;;;;5054091;28;20130;-65
2023/07/13 05:16:35;;;;;;;9.02;3.42;;;19.50;66.50;;;;;;5069257;28;20086;-65
2023/07/13 05:19:01;;;;;;;9.63;3.70;;;19.50;66.50;;;;;;5070479;28;20016;-65
2023/07/13 05:21:27;;;;;;;8.10;3.50;;;19.50;66.40;;;;;;5037039;28;20107;-65
2023/07/13 05:23:53;;;;;;;14.20;4.20;;;19.50;66.50;;;;;;5070677;28;20417;-65
2023/07/13 05:26:20;;;;;;;10.52;4.18;;;19.50;67.20;;;;;;5051644;28;20024;-65
2023/07/13 05:28:46;;;;;;;12.13;3.50;;;19.50;66.60;;;;;;5071845;28;20218;-66
2023/07/13 05:31:12;;;;;;;11.48;4.32;;;19.50;66.70;;;;;;5053543;28;20051;-66
2023/07/13 05:33:38;;;;;;;11.80;3.85;;;19.50;66.70;;;;;;5051001;28;20028;-66
2023/07/13 05:36:04;;;;;;;11.05;3.67;;;19.50;66.70;;;;;;5070449;28;20081;-67
2023/07/13 05:38:30;;;;;;;10.93;3.90;;;19.60;66.70;;;;;;5071410;28;20028;-67
2023/07/13 05:40:57;;;;;;;9.45;3.80;;;19.60;66.70;;;;;;5072052;28;20075;-67
2023/07/13 05:43:23;;;;;;;14.00;4.60;;;19.60;66.80;;;;;;5053545;28;20021;-67
2023/07/13 05:45:50;;;;;;;10.88;4.20;;;19.60;66.80;;;;;;5053020;28;20033;-67
2023/07/13 05:48:16;;;;;;;11.13;3.97;;;19.60;66.90;;;;;;5068397;28;20040;-67
2023/07/13 05:50:44;;;;;;;11.15;4.38;;;19.60;67.00;;;;;;5069442;28;20465;-67
2023/07/13 05:53:12;;;;;;;11.55;4.40;;;19.60;67.00;;;;;;5034909;28;20177;-66
2023/07/13 05:55:47;;;;;;;11.05;4.40;;;19.60;67.00;;;;;;5069131;28;20131;-66
2023/07/13 05:58:13;;;;;;;10.10;4.80;;;19.70;67.80;;;;;;5068239;28;20036;-66
2023/07/13 06:00:40;;;;;;;13.77;5.22;;;19.60;67.20;;;;;;5052401;28;20029;-66
2023/07/13 06:03:06;;;;;;;13.32;5.20;;;19.70;67.20;;;;;;5034924;28;20520;-66
2023/07/13 06:05:33;;;;;;;12.80;5.47;;;19.70;67.30;;;;;;5066794;28;20044;-66
2023/07/13 06:08:00;;;;;;;13.40;5.28;;;19.70;67.40;;;;;;5052878;28;20024;-68
2023/07/13 06:10:25;;;;;;;14.45;5.13;;;19.80;67.60;;;;;;5054249;28;20039;-65
2023/07/13 06:12:51;;;;;;;14.50;5.90;;;19.80;67.60;;;;;;5053417;28;20024;-63
2023/07/13 06:15:17;;;;;;;14.07;6.40;;;19.80;67.60;;;;;;5041194;28;20033;-63
2023/07/13 06:17:43;;;;;;;15.40;5.55;;;19.80;68.40;;;;;;5051350;28;20028;-64
2023/07/13 06:20:09;;;;;;;16.85;7.13;;;19.90;67.70;;;;;;5053652;28;20027;-64
2023/07/13 06:22:35;;;;;;;15.70;6.70;;;19.90;67.70;;;;;;5053947;28;20039;-64
2023/07/13 06:25:01;;;;;;;13.68;7.30;;;20.00;67.70;;;;;;5053687;28;20024;-64
2023/07/13 06:27:27;;;;;;;11.07;6.03;;;20.00;67.60;;;;;;5070465;28;20111;-64
2023/07/13 06:29:53;;;;;;;11.27;6.32;;;20.00;67.60;;;;;;5050059;28;20032;-64
2023/07/13 06:32:19;;;;;;;14.77;7.13;;;20.10;67.60;;;;;;5072513;28;20318;-64
2023/07/13 06:34:44;;;;;;;13.50;6.78;;;20.10;67.70;;;;;;5046062;28;20020;-64
2023/07/13 06:37:10;;;;;;;12.90;8.00;;;20.10;67.70;;;;;;5073868;28;20029;-64
2023/07/13 06:39:36;;;;;;;15.32;7.13;;;20.20;67.80;;;;;;5071260;28;20033;-64
2023/07/13 06:42:02;;;;;;;15.40;7.28;;;20.20;67.80;;;;;;5055932;28;20111;-63
2023/07/13 06:44:27;;;;;;;14.70;6.75;;;20.30;67.70;;;;;;5073041;28;20431;-64
2023/07/13 06:46:53;;;;;;;17.20;7.75;;;20.40;67.60;;;;;;5067504;28;20082;-64
2023/07/13 06:49:19;;;;;;;15.38;8.20;;;20.40;67.60;;;;;;5073119;28;20445;-64
2023/07/13 06:51:45;;;;;;;17.02;7.55;;;20.50;67.60;;;;;;5055950;28;20086;-65
2023/07/13 06:54:10;;;;;;;16.08;7.68;;;20.50;67.70;;;;;;5074891;28;20421;-64
2023/07/13 06:56:36;;;;;;;15.23;7.47;;;20.50;67.90;;;;;;5073044;28;20523;-64
2023/07/13 06:59:02;;;;;;;14.27;7.43;;;20.50;68.00;;;;;;5056035;28;20440;-65
2023/07/13 07:01:27;;;;;;;16.67;7.72;;;20.50;67.80;;;;;;5054083;28;20021;-64
2023/07/13 07:03:53;;;;;;;15.13;8.23;;;20.60;67.80;;;;;;5055868;28;20511;-64
2023/07/13 07:06:24;;;;;;;14.27;8.30;;;20.70;67.70;;;;;;5072726;28;20418;-65
2023/07/13 07:08:51;;;;;;;14.57;8.73;;;20.70;67.60;;;;;;5074235;28;20043;-64
2023/07/13 07:11:20;;;;;;;16.40;8.30;;;20.70;67.60;;;;;;5071722;28;20391;-65
2023/07/13 07:13:46;;;;;;;19.63;8.32;;;20.70;67.70;;;;;;5072296;28;20028;-64
2023/07/13 07:16:11;;;;;;;17.45;8.50;;;20.70;67.60;;;;;;5044134;28;20040;-64
2023/07/13 07:18:37;;;;;;;13.65;8.32;;;20.70;67.60;;;;;;5072121;28;20044;-65
2023/07/13 07:21:04;;;;;;;12.68;7.50;;;20.80;67.70;;;;;;5071390;28;20352;-65
2023/07/13 07:23:30;;;;;;;15.13;8.23;;;20.90;67.70;;;;;;5071820;28;20399;-64
2023/07/13 07:25:56;;;;;;;13.48;7.68;;;20.90;67.50;;;;;;5073803;28;20032;-65
2023/07/13 07:28:22;;;;;;;14.65;8.50;;;21.00;67.40;;;;;;5056117;28;20421;-64
2023/07/13 07:30:48;;;;;;;16.88;7.38;;;21.00;67.10;;;;;;5054509;28;20365;-64
2023/07/13 07:33:16;;;;;;;16.77;8.45;;;21.00;66.90;;;;;;5061019;28;20063;-64
2023/07/13 07:35:42;;;;;;;15.40;8.80;;;21.10;66.90;;;;;;5071526;28;20102;-64
2023/07/13 07:38:09;;;;;;;12.60;7.68;;;21.10;67.00;;;;;;5073560;28;20016;-65
2023/07/13 07:40:40;;;;;;;15.82;8.20;;;21.10;67.00;;;;;;5044821;28;20037;-64
2023/07/13 07:43:07;;;;;;;14.77;8.40;;;21.20;67.00;;;;;;5053291;28;20119;-64
2023/07/13 07:45:32;;;;;;;12.98;7.28;;;21.20;66.80;;;;;;5053073;28;20040;-66
2023/07/13 07:47:59;;;;;;;14.75;8.52;;;21.30;66.70;;;;;;5051624;28;20025;-66
2023/07/13 07:50:26;;;;;;;13.32;7.13;;;21.40;66.40;;;;;;5072127;28;20024;-66
2023/07/13 07:52:52;;;;;;;13.82;7.32;;;21.60;66.10;;;;;;5056902;28;20017;-66
2023/07/13 07:55:17;;;;;;;18.92;7.57;;;21.70;65.90;;;;;;5041985;28;20039;-65
2023/07/13 07:57:43;;;;;;;16.25;7.95;;;21.80;65.60;;;;;;5076954;28;20126;-66
2023/07/13 08:00:10;;;;;;;11.98;7.35;;;21.90;65.40;;;;;;5074713;28;20028;-66
2023/07/13 08:02:43;;;;;;;14.50;7.78;;;21.90;65.30;;;;;;5057950;28;20028;-66
2023/07/13 08:05:09;;;;;;;13.07;7.93;;;21.90;65.50;;;;;;5055541;28;20361;-65
2023/07/13 08:07:37;;;;;;;12.13;7.68;;;21.90;65.40;;;;;;5035507;28;20127;-66
2023/07/13 08:10:03;;;;;;;16.35;7.45;;;22.00;65.30;;;;;;5051080;28;20032;-66
2023/07/13 08:12:29;;;;;;;16.17;8.30;;;22.20;64.90;;;;;;5077026;28;20032;-66
2023/07/13 08:14:57;;;;;;;12.10;7.95;;;22.30;64.40;;;;;;5042556;28;20047;-66
2023/07/13 08:17:24;;;;;;;14.93;8.00;;;22.40;64.20;;;;;;5059900;28;20029;-66
2023/07/13 08:19:50;;;;;;;14.90;8.15;;;22.40;64.10;;;;;;5075748;28;20467;-66
2023/07/13 08:22:16;;;;;;;14.27;8.02;;;22.40;63.90;;;;;;5076666;28;20468;-66
2023/07/13 08:24:42;;;;;;;17.42;7.45;;;22.50;63.80;;;;;;5059306;28;20052;-66
2023/07/13 08:27:08;;;;;;;14.70;8.73;;;22.60;63.60;;;;;;5077685;28;20021;-66
2023/07/13 08:29:34;;;;;;;14.13;8.73;;;22.60;63.40;;;;;;5075249;28;20114;-66
2023/07/13 08:32:00;;;;;;;13.80;7.85;;;22.70;63.10;;;;;;5070376;28;20048;-66
2023/07/13 08:34:26;;;;;;;13.43;8.05;;;22.80;62.80;;;;;;5048943;28;20060;-66
2023/07/13 08:36:52;;;;;;;12.70;7.15;;;23.10;62.30;;;;;;5033647;28;20227;-66
2023/07/13 08:39:17;;;;;;;12.40;6.75;;;23.20;61.60;;;;;;5070477;28;20025;-66
2023/07/13 08:41:52;;;;;;;13.18;6.65;;;23.50;61.20;;;;;;5069598;28;20024;-66
2023/07/13 08:44:33;;;;;;;10.60;5.60;;;23.70;60.50;;;;;;5061495;28;20153;-66
2023/07/13 08:46:59;;;;;;;12.32;6.97;;;24.10;60.20;;;;;;5069332;28;20127;-66
2023/07/13 08:49:27;;;;;;;12.45;6.47;;;24.20;60.00;;;;;;5040726;28;20448;-66
2023/07/13 08:52:16;;;;;;;14.80;7.18;;;24.30;59.70;;;;;;5072439;28;20433;-66
2023/07/13 08:54:48;;;;;;;13.93;6.50;;;24.30;59.50;;;;;;5048874;28;20043;-66
2023/07/13 08:57:17;;;;;;;11.07;6.30;;;24.00;59.50;;;;;;5066185;28;20365;-66
2023/07/13 08:59:44;;;;;;;11.27;6.75;;;23.70;59.70;;;;;;5037073;28;20040;-66
2023/07/13 09:02:27;;;;;;;13.32;6.40;;;23.50;60.00;;;;;;5058453;28;20043;-66
2023/07/13 09:04:56;;;;;;;12.68;6.88;;;23.20;60.60;;;;;;5074760;28;20154;-66
2023/07/13 09:07:37;;;;;;;13.45;6.30;;;23.10;61.00;;;;;;5074835;28;20118;-66
2023/07/13 09:10:14;;;;;;;11.30;6.28;;;23.00;60.90;;;;;;5040397;28;20036;-66
2023/07/13 09:13:14;;;;;;;11.18;5.97;;;23.30;60.40;;;;;;5028298;28;20020;-66
2023/07/13 09:15:43;;;;;;;8.23;4.90;;;23.70;58.90;;;;;;5050247;28;20052;-66
2023/07/13 09:18:21;;;;;;;9.25;5.18;;;24.20;57.90;;;;;;5040000;28;20017;-66
2023/07/13 09:20:58;;;;;;;10.13;5.80;;;24.60;56.90;;;;;;5054225;28;20460;-66
2023/07/13 09:23:29;;;;;;;10.63;4.80;;;24.90;55.90;;;;;;5068681;28;20017;-66
2023/07/13 09:26:25;;;;;;;11.82;4.45;;;25.30;55.60;;;;;;5075517;28;20473;-66
2023/07/13 09:28:57;;;;;;;8.60;4.28;;;25.50;54.80;;;;;;5054155;28;20361;-66
2023/07/13 09:31:33;;;;;;;11.68;4.93;;;25.40;54.60;;;;;;5058281;28;20020;-66
2023/07/13 09:33:59;;;;;;;8.48;4.43;;;25.10;54.70;;;;;;5041067;28;20055;-66
2023/07/13 09:36:31;;;;;;;10.35;5.50;;;24.90;55.10;;;;;;5057271;28;20449;-66
2023/07/13 09:39:03;;;;;;;10.05;4.63;;;24.70;55.20;;;;;;5074275;28;20032;-66
2023/07/13 09:42:08;;;;;;;10.38;5.13;;;24.40;55.70;;;;;;5073280;28;20044;-66
2023/07/13 09:44:39;;;;;;;8.27;3.85;;;24.10;56.50;;;;;;5036279;28;20036;-66
2023/07/13 09:47:29;;;;;;;8.52;4.07;;;23.80;57.20;;;;;;5051614;28;20352;-66
2023/07/13 09:50:00;;;;;;;7.55;3.13;;;23.60;57.70;;;;;;5048295;28;20024;-66
2023/07/13 09:52:28;;;;;;;7.30;2.90;;;23.50;58.00;;;;;;5075910;28;20090;-66
2023/07/13 09:54:59;;;;;;;10.35;3.83;;;23.50;58.30;;;;;;5054269;28;20488;-66
2023/07/13 09:57:27;;;;;;;8.23;3.50;;;23.50;58.40;;;;;;5055121;28;20032;-66
2023/07/13 09:59:56;;;;;;;8.55;3.75;;;23.50;58.70;;;;;;5056159;28;20043;-66
2023/07/13 10:02:33;;;;;;;8.40;3.20;;;23.40;59.00;;;;;;5073323;28;20132;-66
2023/07/13 10:05:25;;;;;;;9.60;4.20;;;23.40;59.20;;;;;;5057667;28;20028;-66
2023/07/13 10:07:52;;;;;;;9.20;4.00;;;23.30;59.50;;;;;;5054936;28;20164;-66
2023/07/13 10:10:21;;;;;;;9.32;3.88;;;23.30;59.60;;;;;;5054702;28;20527;-66
2023/07/13 10:12:47;;;;;;;8.68;3.40;;;23.40;59.60;;;;;;5052806;28;20442;-66
2023/07/13 10:15:23;;;;;;;8.32;3.55;;;23.70;59.10;;;;;;5056504;28;20041;-66
2023/07/13 10:17:51;;;;;;;6.15;3.15;;;24.00;58.80;;;;;;5075115;28;20028;-66
2023/07/13 10:20:18;;;;;;;8.48;3.95;;;24.30;58.30;;;;;;5056687;28;20024;-66
2023/07/13 10:22:51;;;;;;;8.75;3.78;;;24.70;57.60;;;;;;5054698;28;20068;-66
2023/07/13 10:25:22;;;;;;;7.38;3.28;;;25.10;57.00;;;;;;5066672;28;20032;-66
2023/07/13 10:27:53;;;;;;;7.73;3.00;;;25.30;56.50;;;;;;5070188;28;20025;-66
2023/07/13 10:30:25;;;;;;;7.97;3.47;;;25.60;56.10;;;;;;5071683;28;20070;-66
2023/07/13 10:32:52;;;;;;;10.63;4.18;;;25.90;55.50;;;;;;5056433;28;20111;-66
2023/07/13 10:35:22;;;;;;;7.60;3.47;;;26.00;54.90;;;;;;5069412;28;20419;-66
2023/07/13 10:37:53;;;;;;;9.02;3.95;;;25.90;54.80;;;;;;5068446;28;20481;-66
2023/07/13 10:40:27;;;;;;;7.95;3.60;;;25.70;54.80;;;;;;5070361;28;20028;-66
2023/07/13 10:42:56;;;;;;;6.88;2.72;;;25.40;55.00;;;;;;5034847;28;20086;-66
2023/07/13 10:45:23;;;;;;;7.10;2.88;;;25.30;55.30;;;;;;5068231;28;20089;-66
2023/07/13 10:47:53;;;;;;;8.15;3.55;;;25.10;55.10;;;;;;5065917;28;20444;-64
2023/07/13 10:50:27;;;;;;;7.20;3.15;;;24.80;55.10;;;;;;5047219;28;20465;-64
2023/07/13 10:52:54;;;;;;;13.27;4.90;;;24.50;55.90;;;;;;5032382;28;20020;-64
2023/07/13 10:55:38;;;;;;;10.18;4.68;;;24.10;57.20;;;;;;5050891;28;20020;-64
2023/07/13 10:58:23;;;;;;;11.18;4.75;;;23.80;59.00;;;;;;5067406;28;20078;-64
2023/07/13 11:01:15;;;;;;;12.18;4.18;;;23.60;60.50;;;;;;5068331;28;20107;-64
2023/07/13 11:03:47;;;;;;;7.35;3.47;;;23.70;61.50;;;;;;5049699;28;20028;-64
2023/07/13 11:06:24;;;;;;;8.40;4.07;;;24.10;61.50;;;;;;5065835;28;20059;-64
2023/07/13 11:08:55;;;;;;;7.95;3.60;;;24.50;61.10;;;;;;5072213;28;20082;-65
2023/07/13 11:11:24;;;;;;;;;;;24.80;60.30;;;;;;5074621;28;20445;-65
2023/07/13 11:13:50;;;;;;;9.05;3.38;;;25.00;59.80;;;;;;5074076;28;19923;-65
2023/07/13 11:16:15;;;;;;;10.35;3.33;;;25.10;59.90;;;;;;5072635;28;20020;-64
2023/07/13 11:18:46;;;;;;;8.82;3.08;;;25.20;59.80;;;;;;5056528;28;20498;-65
2023/07/13 11:21:30;;;;;;;6.78;2.85;;;25.30;59.70;;;;;;5074404;28;20040;-65
2023/07/13 11:24:16;;;;;;;7.80;3.05;;;25.50;60.40;;;;;;5074092;28;20040;-64
2023/07/13 11:26:43;;;;;;;6.53;2.95;;;25.70;58.70;;;;;;5054369;28;20249;-65
2023/07/13 11:29:15;;;;;;;8.00;3.20;;;25.50;58.00;;;;;;5056024;28;20032;-65
2023/07/13 11:31:43;;;;;;;7.65;3.05;;;25.30;58.00;;;;;;5056330;28;20035;-65
2023/07/13 11:34:25;;;;;;;6.50;2.60;;;25.00;58.60;;;;;;5056352;28;20035;-65
2023/07/13 11:36:51;;;;;;;7.20;3.30;;;24.80;59.00;;;;;;5072039;28;20123;-65
2023/07/13 11:39:22;;;;;;;6.65;2.55;;;24.80;59.00;;;;;;5073117;28;20056;-64
2023/07/13 11:41:56;;;;;;;6.80;2.60;;;25.00;58.90;;;;;;5055843;28;20090;-64
2023/07/13 11:44:24;;;;;;;6.30;2.40;;;25.40;58.60;;;;;;5029166;28;20032;-63
2023/07/13 11:46:53;;;;;;;6.90;2.30;;;25.60;57.50;;;;;;5071995;28;20353;-64
2023/07/13 11:49:26;;;;;;;5.10;2.08;;;25.80;56.50;;;;;;5073477;28;20445;-63
2023/07/13 11:51:56;;;;;;;4.15;1.83;;;26.00;55.30;;;;;;5055528;28;20025;-65
2023/07/13 11:54:29;;;;;;;5.03;2.30;;;26.10;54.60;;;;;;5070421;28;20032;-64
2023/07/13 11:57:23;;;;;;;4.53;1.85;;;26.10;54.20;;;;;;5055051;28;20020;-64
2023/07/13 11:59:51;;;;;;;6.50;1.85;;;26.10;53.80;;;;;;5035480;28;20041;-64
2023/07/13 12:02:35;;;;;;;5.05;1.95;;;26.20;53.60;;;;;;5054939;28;20361;-64
2023/07/13 12:05:04;;;;;;;5.00;1.90;;;26.10;53.30;;;;;;5073670;28;20024;-64
2023/07/13 12:07:32;;;;;;;5.13;2.20;;;25.90;53.60;;;;;;5072825;28;20115;-64
2023/07/13 12:10:23;;;;;;;5.30;2.50;;;25.60;53.90;;;;;;5073752;28;20035;-64
2023/07/13 12:12:52;;;;;;;5.97;2.40;;;25.30;54.40;;;;;;5073904;28;20108;-64
2023/07/13 12:15:21;;;;;;;7.03;2.67;;;25.00;54.80;;;;;;5055992;28;20059;-64
2023/07/13 12:17:47;;;;;;;6.30;2.50;;;24.80;55.20;;;;;;5072395;28;20369;-64
2023/07/13 12:20:27;;;;;;;6.28;2.53;;;24.60;55.60;;;;;;5073666;28;20179;-64
2023/07/13 12:22:53;;;;;;;6.28;2.67;;;24.60;55.90;;;;;;5074010;28;20121;-64
2023/07/13 12:25:20;;;;;;;6.75;2.80;;;24.70;55.80;;;;;;5039178;28;20369;-64
2023/07/13 12:27:50;;;;;;;5.72;2.30;;;24.80;55.70;;;;;;5072299;28;20074;-64
2023/07/13 12:30:30;;;;;;;6.30;2.33;;;24.90;55.50;;;;;;5069804;28;20111;-64
2023/07/13 12:33:01;;;;;;;6.32;2.28;;;25.00;55.70;;;;;;5073661;28;20318;-64
2023/07/13 12:35:35;;;;;;;6.40;2.47;;;25.10;55.80;;;;;;5074026;28;20029;-64
2023/07/13 12:38:01;;;;;;;6.53;2.13;;;25.20;55.80;;;;;;5072646;28;20100;-64
2023/07/13 12:40:36;;;;;;;6.13;2.20;;;25.30;55.70;;;;;;5058205;28;20351;-64
2023/07/13 12:43:06;;;;;;;6.75;2.58;;;25.40;55.70;;;;;;5076931;28;20103;-64
2023/07/13 12:45:33;;;;;;;6.33;2.00;;;25.40;55.40;;;;;;5073678;28;20135;-66
2023/07/13 12:48:16;;;;;;;5.93;2.10;;;25.30;55.40;;;;;;5058073;28;20040;-66
2023/07/13 12:50:48;;;;;;;4.65;2.17;;;25.20;55.50;;;;;;5075394;28;20064;-65
2023/07/13 12:53:30;;;;;;;6.63;2.53;;;25.00;55.50;;;;;;5058836;28;20074;-64
2023/07/13 12:56:03;;;;;;;6.32;2.47;;;24.90;55.70;;;;;;5025717;28;20406;-66